Terminal Aerodrome Forecast
Issued by NWS Louisville, KY

Home | Current Version | Previous Version | Text Only | Print | Product List | Glossary On
Versions: 1 2 3 4 5 6 7 8 9 10 11 12 13 14 15 16 17 18
000
FTUS43 KLMK 220529
TAFBWG
TAF
KBWG 220529Z 2206/2306 05004KT P6SM SCT150 BKN250
     FM221300 09008KT P6SM BKN070
     FM221500 12011KT P6SM -SHRA BKN040
     FM221800 11013KT 5SM -RA BKN025
     FM230000 10012G17KT 6SM -RA BKN028=

USA.gov is the U.S. government's official web portal to all federal, state and local government web resources and services.